Quenames — WTU9038 — position and weather

sailwx.info

Track history (hours):
 
Tides and Currents Weather Stations Pressure Air Temp Water Temp Dewpoint Dewpoint Depression Visibility Wind Speed Wind Dir Waves Ship Positions

Quenames

Owner: BOSTON MARINE TRANSPORT INC, EAST BOSTON, MA. More information available from US FCC via Universal Licensing System and Coast Guard Vessel Documentation Center.

Last reported at 2014-Dec-20 02:18 UTC. Time now 2014-Dec-21 18:42 UTC.
Position N 40°52' W 073°56'.

Length 23 m.

Type: Tug. MMSI: 367022790.

Date/timePositionNaut miles runAvg speedWind from/ knotsBaromVisibWave heightAir tempDewpointWater temp
2014-Dec-20 02:18N 40°52' W 073°56'6 7.8
2014-Dec-20 01:33N 40°47' W 073°60'8 7.7
2014-Dec-20 00:33N 40°39' W 074°03'2 2.4
2014-Dec-19 23:33N 40°39' W 074°07'0 0.0
2014-Dec-19 22:33N 40°39' W 074°07'0 0.0
2014-Dec-19 21:33N 40°39' W 074°07'0 0.0
2014-Dec-19 20:33N 40°39' W 074°07'0 0.0
2014-Dec-19 19:33N 40°39' W 074°07'0 0.0
2014-Dec-19 18:33N 40°39' W 074°07'0 0.0
2014-Dec-19 17:32N 40°39' W 074°07'0 0.0
2014-Dec-19 16:33N 40°39' W 074°07'0 0.0
2014-Dec-19 15:30N 40°39' W 074°07'0 0.0
2014-Dec-19 14:32N 40°39' W 074°07'0 0.0
2014-Dec-19 13:33N 40°39' W 074°07'0 0.0
2014-Dec-19 12:33N 40°39' W 074°07'5 5.1
2014-Dec-19 11:33N 40°41' W 074°01'6 6.0
2014-Dec-19 10:33N 40°46' W 073°57'19 6.2
2014-Dec-19 07:26N 40°58' W 073°36'8 8.6
2014-Dec-19 06:33N 41°01' W 073°27'8 8.3
2014-Dec-19 05:33N 41°04' W 073°16'8 7.9
2014-Dec-19 04:33N 41°07' W 073°06'8 8.0
2014-Dec-19 03:33N 41°11' W 072°58'4 0.3
2014-Dec-18 15:20N 41°14' W 072°55'1 1.8
2014-Dec-18 14:33N 41°14' W 072°57'0 0.0
2014-Dec-18 13:33N 41°14' W 072°57'0 0.0
2014-Dec-18 12:33N 41°14' W 072°57'0 0.0
2014-Dec-18 11:33N 41°14' W 072°57'0 0.0
2014-Dec-18 10:33N 41°14' W 072°57'0 0.0
2014-Dec-18 09:33N 41°14' W 072°57'0 0.0
2014-Dec-18 08:33N 41°14' W 072°57'0 0.0
2014-Dec-18 07:33N 41°14' W 072°57'0 0.0
2014-Dec-18 06:33N 41°14' W 072°57'0 0.0
2014-Dec-18 05:33N 41°14' W 072°57'0 0.0
2014-Dec-18 04:33N 41°14' W 072°57'0 0.0
2014-Dec-18 03:33N 41°14' W 072°57'0 0.0
2014-Dec-18 02:33N 41°14' W 072°57'0 0.0
2014-Dec-18 01:33N 41°14' W 072°57'0 0.0
2014-Dec-18 00:34N 41°14' W 072°57'1 0.5
2014-Dec-17 23:30N 41°13' W 072°56'7 7.1
2014-Dec-17 22:33N 41°08' W 073°02'8 7.1
2014-Dec-17 21:24N 41°05' W 073°12'15 7.5
2014-Dec-17 19:24N 40°60' W 073°31'22 7.5
2014-Dec-17 16:25N 40°47' W 073°55'5 5.6
2014-Dec-17 15:33N 40°43' W 073°58'6 5.8
2014-Dec-17 14:33N 40°39' W 074°04'6 5.6
2014-Dec-17 13:33N 40°38' W 074°11'7 3.4
2014-Dec-17 11:27N 40°32' W 074°15'0 0.0
2014-Dec-17 09:28N 40°32' W 074°15'0 0.0
2014-Dec-17 06:20N 40°32' W 074°15'0 0.0
2014-Dec-17 04:33N 40°32' W 074°15'0 0.0
2014-Dec-17 03:32N 40°32' W 074°15'1 0.7
2014-Dec-17 01:30N 40°33' W 074°15'1 1.3
2014-Dec-17 00:24N 40°32' W 074°15'0 0.0
2014-Dec-16 23:21N 40°32' W 074°15'0 0.0
2014-Dec-16 22:32N 40°32' W 074°15'0 0.0
2014-Dec-16 21:19N 40°32' W 074°15'0 0.0
2014-Dec-16 20:08N 40°32' W 074°15'0 0.0
2014-Dec-16 19:31N 40°32' W 074°15'0 0.0
2014-Dec-16 18:31N 40°32' W 074°15'0 0.0
2014-Dec-16 17:33N 40°32' W 074°15'0 0.0
2014-Dec-16 16:23N 40°32' W 074°15'0 0.0
2014-Dec-16 15:33N 40°32' W 074°15'0 0.0
2014-Dec-16 14:26N 40°32' W 074°15'0 0.0
2014-Dec-16 13:32N 40°32' W 074°15'0 0.0
2014-Dec-16 12:31N 40°32' W 074°15'5 5.1
2014-Dec-16 11:29N 40°37' W 074°12'2 1.8
2014-Dec-16 10:33N 40°38' W 074°12'6 5.5
2014-Dec-16 09:30N 40°33' W 074°15'4 2.7
2014-Dec-16 08:04N 40°36' W 074°12'3 6.0
2014-Dec-16 07:33N 40°39' W 074°10'7 6.9
2014-Dec-16 06:33N 40°42' W 074°02'11 8.5
2014-Dec-16 05:18N 40°52' W 073°57'1 0.0
2014-Dec-14 07:07N 40°51' W 073°57'5 8.9
2014-Dec-14 06:33N 40°46' W 074°00'8 7.8
2014-Dec-14 05:33N 40°39' W 074°04'7 6.0
2014-Dec-14 04:22N 40°35' W 074°12'0 0.2
2014-Dec-14 02:26N 40°35' W 074°13'3 3.4
2014-Dec-14 01:32N 40°33' W 074°15'1 0.5
2014-Dec-14 00:08N 40°32' W 074°15'6 8.5
2014-Dec-13 23:27N 40°38' W 074°12'4 2.1
2014-Dec-13 21:20N 40°39' W 074°07'10 2.5
2014-Dec-13 17:32N 40°32' W 074°15'0 0.0
2014-Dec-13 15:10N 40°32' W 074°15'0 0.0
2014-Dec-13 12:21N 40°32' W 074°15'0 0.0
2014-Dec-13 11:15N 40°32' W 074°15'0 0.0
2014-Dec-13 08:14N 40°32' W 074°15'0 0.0
2014-Dec-13 06:26N 40°32' W 074°15'0 0.0
2014-Dec-13 05:29N 40°32' W 074°15'0 0.0
2014-Dec-13 03:25N 40°32' W 074°15'0 0.0
2014-Dec-13 02:24N 40°32' W 074°15'0 0.0
2014-Dec-13 01:28N 40°32' W 074°15'0 0.0
2014-Dec-13 00:04N 40°32' W 074°15'0 0.0
2014-Dec-12 22:30N 40°32' W 074°15'0 0.0
2014-Dec-12 21:22N 40°32' W 074°15'1 0.3
2014-Dec-12 19:13N 40°33' W 074°15'5 7.1
2014-Dec-12 18:31N 40°37' W 074°12'6 6.7
2014-Dec-12 17:33N 40°39' W 074°04'9 7.2
2014-Dec-12 16:20N 40°34' W 073°55'7 7.1
2014-Dec-12 15:21N 40°37' W 073°46'1 1.2
2014-Dec-12 14:20N 40°38' W 073°45'0 0.0
2014-Dec-12 12:12N 40°38' W 073°45'0 0.0
2014-Dec-12 11:33N 40°38' W 073°45'0 0.0
2014-Dec-12 06:18N 40°38' W 073°45'0 0.0
2014-Dec-12 05:33N 40°38' W 073°45'3 2.2
2014-Dec-12 04:12N 40°36' W 073°48'5 7.2
2014-Dec-12 03:33N 40°34' W 073°54'7 6.7
2014-Dec-12 02:32N 40°36' W 074°02'6 6.0
2014-Dec-12 01:33N 40°39' W 074°09'4 1.7
2014-Dec-11 23:23N 40°36' W 074°12'4 5.3
2014-Dec-11 22:33N 40°32' W 074°15'0 0.0
2014-Dec-11 21:30N 40°32' W 074°15'0 0.0
2014-Dec-11 20:27N 40°32' W 074°15'0 0.0
2014-Dec-11 19:18N 40°32' W 074°15'0 0.0
2014-Dec-11 17:30N 40°32' W 074°15'0 0.0
2014-Dec-11 16:11N 40°32' W 074°15'4 4.9
2014-Dec-11 15:26N 40°35' W 074°12'1 0.9
2014-Dec-11 14:16N 40°36' W 074°12'2 2.6
2014-Dec-11 13:32N 40°38' W 074°12'8 8.4
2014-Dec-11 12:33N 40°41' W 074°02'1110.5
2014-Dec-11 11:33N 40°51' W 073°57'  
Track history (hours):
 
Tides and Currents Weather Stations Pressure Air Temp Water Temp Dewpoint Dewpoint Depression Visibility Wind Speed Wind Dir Waves Ship Positions

Quenames

Owner: BOSTON MARINE TRANSPORT INC, EAST BOSTON, MA. More information available from US FCC via Universal Licensing System and Coast Guard Vessel Documentation Center.

Last reported at 2014-Dec-20 02:18 UTC. Time now 2014-Dec-21 18:42 UTC.
Position N 40°52' W 073°56'.

Length 23 m.

Type: Tug. MMSI: 367022790.

Date/timePositionNaut miles runAvg speedWind from/ knotsBaromVisibWave heightAir tempDewpointWater temp
2014-Dec-20 02:18N 40°52' W 073°56'6 7.8
2014-Dec-20 01:33N 40°47' W 073°60'8 7.7
2014-Dec-20 00:33N 40°39' W 074°03'2 2.4
2014-Dec-19 23:33N 40°39' W 074°07'0 0.0
2014-Dec-19 22:33N 40°39' W 074°07'0 0.0
2014-Dec-19 21:33N 40°39' W 074°07'0 0.0
2014-Dec-19 20:33N 40°39' W 074°07'0 0.0
2014-Dec-19 19:33N 40°39' W 074°07'0 0.0
2014-Dec-19 18:33N 40°39' W 074°07'0 0.0
2014-Dec-19 17:32N 40°39' W 074°07'0 0.0
2014-Dec-19 16:33N 40°39' W 074°07'0 0.0
2014-Dec-19 15:30N 40°39' W 074°07'0 0.0
2014-Dec-19 14:32N 40°39' W 074°07'0 0.0
2014-Dec-19 13:33N 40°39' W 074°07'0 0.0
2014-Dec-19 12:33N 40°39' W 074°07'5 5.1
2014-Dec-19 11:33N 40°41' W 074°01'6 6.0
2014-Dec-19 10:33N 40°46' W 073°57'19 6.2
2014-Dec-19 07:26N 40°58' W 073°36'8 8.6
2014-Dec-19 06:33N 41°01' W 073°27'8 8.3
2014-Dec-19 05:33N 41°04' W 073°16'8 7.9
2014-Dec-19 04:33N 41°07' W 073°06'8 8.0
2014-Dec-19 03:33N 41°11' W 072°58'4 0.3
2014-Dec-18 15:20N 41°14' W 072°55'1 1.8
2014-Dec-18 14:33N 41°14' W 072°57'0 0.0
2014-Dec-18 13:33N 41°14' W 072°57'0 0.0
2014-Dec-18 12:33N 41°14' W 072°57'0 0.0
2014-Dec-18 11:33N 41°14' W 072°57'0 0.0
2014-Dec-18 10:33N 41°14' W 072°57'0 0.0
2014-Dec-18 09:33N 41°14' W 072°57'0 0.0
2014-Dec-18 08:33N 41°14' W 072°57'0 0.0
2014-Dec-18 07:33N 41°14' W 072°57'0 0.0
2014-Dec-18 06:33N 41°14' W 072°57'0 0.0
2014-Dec-18 05:33N 41°14' W 072°57'0 0.0
2014-Dec-18 04:33N 41°14' W 072°57'0 0.0
2014-Dec-18 03:33N 41°14' W 072°57'0 0.0
2014-Dec-18 02:33N 41°14' W 072°57'0 0.0
2014-Dec-18 01:33N 41°14' W 072°57'0 0.0
2014-Dec-18 00:34N 41°14' W 072°57'1 0.5
2014-Dec-17 23:30N 41°13' W 072°56'7 7.1
2014-Dec-17 22:33N 41°08' W 073°02'8 7.1
2014-Dec-17 21:24N 41°05' W 073°12'15 7.5
2014-Dec-17 19:24N 40°60' W 073°31'22 7.5
2014-Dec-17 16:25N 40°47' W 073°55'5 5.6
2014-Dec-17 15:33N 40°43' W 073°58'6 5.8
2014-Dec-17 14:33N 40°39' W 074°04'6 5.6
2014-Dec-17 13:33N 40°38' W 074°11'7 3.4
2014-Dec-17 11:27N 40°32' W 074°15'0 0.0
2014-Dec-17 09:28N 40°32' W 074°15'0 0.0
2014-Dec-17 06:20N 40°32' W 074°15'0 0.0
2014-Dec-17 04:33N 40°32' W 074°15'0 0.0
2014-Dec-17 03:32N 40°32' W 074°15'1 0.7
2014-Dec-17 01:30N 40°33' W 074°15'1 1.3
2014-Dec-17 00:24N 40°32' W 074°15'0 0.0
2014-Dec-16 23:21N 40°32' W 074°15'0 0.0
2014-Dec-16 22:32N 40°32' W 074°15'0 0.0
2014-Dec-16 21:19N 40°32' W 074°15'0 0.0
2014-Dec-16 20:08N 40°32' W 074°15'0 0.0
2014-Dec-16 19:31N 40°32' W 074°15'0 0.0
2014-Dec-16 18:31N 40°32' W 074°15'0 0.0
2014-Dec-16 17:33N 40°32' W 074°15'0 0.0
2014-Dec-16 16:23N 40°32' W 074°15'0 0.0
2014-Dec-16 15:33N 40°32' W 074°15'0 0.0
2014-Dec-16 14:26N 40°32' W 074°15'0 0.0
2014-Dec-16 13:32N 40°32' W 074°15'0 0.0
2014-Dec-16 12:31N 40°32' W 074°15'5 5.1
2014-Dec-16 11:29N 40°37' W 074°12'2 1.8
2014-Dec-16 10:33N 40°38' W 074°12'6 5.5
2014-Dec-16 09:30N 40°33' W 074°15'4 2.7
2014-Dec-16 08:04N 40°36' W 074°12'3 6.0
2014-Dec-16 07:33N 40°39' W 074°10'7 6.9
2014-Dec-16 06:33N 40°42' W 074°02'11 8.5
2014-Dec-16 05:18N 40°52' W 073°57'1 0.0
2014-Dec-14 07:07N 40°51' W 073°57'5 8.9
2014-Dec-14 06:33N 40°46' W 074°00'8 7.8
2014-Dec-14 05:33N 40°39' W 074°04'7 6.0
2014-Dec-14 04:22N 40°35' W 074°12'0 0.2
2014-Dec-14 02:26N 40°35' W 074°13'3 3.4
2014-Dec-14 01:32N 40°33' W 074°15'1 0.5
2014-Dec-14 00:08N 40°32' W 074°15'6 8.5
2014-Dec-13 23:27N 40°38' W 074°12'4 2.1
2014-Dec-13 21:20N 40°39' W 074°07'10 2.5
2014-Dec-13 17:32N 40°32' W 074°15'0 0.0
2014-Dec-13 15:10N 40°32' W 074°15'0 0.0
2014-Dec-13 12:21N 40°32' W 074°15'0 0.0
2014-Dec-13 11:15N 40°32' W 074°15'0 0.0
2014-Dec-13 08:14N 40°32' W 074°15'0 0.0
2014-Dec-13 06:26N 40°32' W 074°15'0 0.0
2014-Dec-13 05:29N 40°32' W 074°15'0 0.0
2014-Dec-13 03:25N 40°32' W 074°15'0 0.0
2014-Dec-13 02:24N 40°32' W 074°15'0 0.0
2014-Dec-13 01:28N 40°32' W 074°15'0 0.0
2014-Dec-13 00:04N 40°32' W 074°15'0 0.0
2014-Dec-12 22:30N 40°32' W 074°15'0 0.0
2014-Dec-12 21:22N 40°32' W 074°15'1 0.3
2014-Dec-12 19:13N 40°33' W 074°15'5 7.1
2014-Dec-12 18:31N 40°37' W 074°12'6 6.7
2014-Dec-12 17:33N 40°39' W 074°04'9 7.2
2014-Dec-12 16:20N 40°34' W 073°55'7 7.1
2014-Dec-12 15:21N 40°37' W 073°46'1 1.2
2014-Dec-12 14:20N 40°38' W 073°45'0 0.0
2014-Dec-12 12:12N 40°38' W 073°45'0 0.0
2014-Dec-12 11:33N 40°38' W 073°45'0 0.0
2014-Dec-12 06:18N 40°38' W 073°45'0 0.0
2014-Dec-12 05:33N 40°38' W 073°45'3 2.2
2014-Dec-12 04:12N 40°36' W 073°48'5 7.2
2014-Dec-12 03:33N 40°34' W 073°54'7 6.7
2014-Dec-12 02:32N 40°36' W 074°02'6 6.0
2014-Dec-12 01:33N 40°39' W 074°09'4 1.7
2014-Dec-11 23:23N 40°36' W 074°12'4 5.3
2014-Dec-11 22:33N 40°32' W 074°15'0 0.0
2014-Dec-11 21:30N 40°32' W 074°15'0 0.0
2014-Dec-11 20:27N 40°32' W 074°15'0 0.0
2014-Dec-11 19:18N 40°32' W 074°15'0 0.0
2014-Dec-11 17:30N 40°32' W 074°15'0 0.0
2014-Dec-11 16:11N 40°32' W 074°15'4 4.9
2014-Dec-11 15:26N 40°35' W 074°12'1 0.9
2014-Dec-11 14:16N 40°36' W 074°12'2 2.6
2014-Dec-11 13:32N 40°38' W 074°12'8 8.4
2014-Dec-11 12:33N 40°41' W 074°02'1110.5
2014-Dec-11 11:33N 40°51' W 073°57'  

Dump ship's entire track history